createdAt,value
2018-02-05T00:00:59.317Z,81.90
2018-02-05T00:03:28.137Z,81.30
2018-02-05T00:05:58.143Z,81.20
2018-02-05T00:08:28.240Z,81.60
2018-02-05T00:10:57.286Z,81.50
2018-02-05T00:13:27.510Z,82.20
2018-02-05T00:15:56.647Z,82.60
2018-02-05T00:18:28.708Z,82.40
2018-02-05T00:20:59.388Z,80.90
2018-02-05T00:23:29.980Z,80.80
2018-02-05T00:25:59.880Z,79.60
2018-02-05T00:28:29.302Z,80.00
2018-02-05T00:31:00.108Z,80.80
2018-02-05T00:33:32.427Z,81.40
2018-02-05T00:36:02.255Z,82.00
2018-02-05T00:38:30.870Z,82.00
2018-02-05T00:41:00.662Z,82.20
2018-02-05T00:43:29.915Z,82.20
2018-02-05T00:46:00.732Z,81.90
2018-02-05T00:48:30.672Z,81.90
2018-02-05T00:51:00.966Z,81.70
2018-02-05T00:53:30.593Z,81.70
2018-02-05T00:56:00.937Z,81.40
2018-02-05T00:58:31.829Z,81.60
2018-02-05T01:01:00.805Z,81.60
2018-02-05T01:03:31.200Z,82.20
2018-02-05T01:06:01.181Z,81.50
2018-02-05T01:08:31.129Z,82.20
2018-02-05T01:11:01.300Z,81.40
2018-02-05T01:13:30.315Z,81.80
2018-02-05T01:16:00.946Z,81.70
2018-02-05T01:18:32.761Z,82.10
2018-02-05T01:21:03.701Z,82.00
2018-02-05T01:23:37.110Z,81.80
2018-02-05T01:26:05.437Z,81.70
2018-02-05T01:28:34.637Z,81.50
2018-02-05T01:31:04.990Z,81.30
2018-02-05T01:33:34.126Z,81.70
2018-02-05T01:36:05.702Z,81.60
2018-02-05T01:38:34.739Z,81.50
2018-02-05T01:41:05.350Z,81.90
2018-02-05T01:43:35.525Z,82.00
2018-02-05T01:46:05.073Z,82.00
2018-02-05T01:48:35.192Z,82.70
2018-02-05T01:51:07.146Z,83.60
2018-02-05T01:53:36.048Z,83.60
2018-02-05T01:56:06.804Z,83.70
2018-02-05T01:58:36.986Z,83.60
2018-02-05T02:01:07.605Z,83.70
2018-02-05T02:03:35.944Z,83.20
2018-02-05T02:06:04.339Z,83.40
2018-02-05T02:08:35.496Z,83.40
2018-02-05T02:11:04.774Z,83.40
2018-02-05T02:13:33.232Z,83.40
2018-02-05T02:16:02.333Z,83.70
2018-02-05T02:18:34.565Z,83.70
2018-02-05T02:21:04.542Z,83.00
2018-02-05T02:23:34.570Z,82.30
2018-02-05T02:26:03.382Z,81.20
2018-02-05T02:28:32.887Z,80.80
2018-02-05T02:31:04.117Z,80.80
2018-02-05T02:33:33.866Z,80.40
2018-02-05T02:36:05.925Z,81.10
2018-02-05T02:38:36.034Z,81.00
2018-02-05T02:41:06.562Z,82.60
2018-02-05T02:43:36.517Z,83.40
2018-02-05T02:46:07.477Z,84.00
2018-02-05T02:48:37.922Z,84.00
2018-02-05T02:51:07.659Z,83.50
2018-02-05T02:53:36.628Z,83.70
2018-02-05T02:56:11.186Z,83.70
2018-02-05T02:58:40.617Z,84.40
2018-02-05T03:01:10.167Z,84.00
2018-02-05T03:03:41.180Z,84.30
2018-02-05T03:06:09.282Z,83.90
2018-02-05T03:08:38.961Z,83.30
2018-02-05T03:11:07.979Z,83.50
2018-02-05T03:13:39.896Z,83.40
2018-02-05T03:16:08.312Z,82.80
2018-02-05T03:18:39.862Z,81.90
2018-02-05T03:21:11.193Z,81.90
2018-02-05T03:23:40.649Z,81.30
2018-02-05T03:26:10.217Z,81.30
2018-02-05T03:28:41.818Z,81.20
2018-02-05T03:31:10.674Z,81.50
2018-02-05T03:33:41.430Z,81.40
2018-02-05T03:36:09.488Z,81.80
2018-02-05T03:38:41.094Z,82.40
2018-02-05T03:41:12.985Z,82.40
2018-02-05T03:43:41.708Z,82.20
2018-02-05T03:46:11.822Z,82.30
2018-02-05T03:48:43.044Z,81.70
2018-02-05T03:51:12.801Z,80.30
2018-02-05T03:53:40.865Z,80.60
2018-02-05T03:56:11.167Z,80.50
2018-02-05T03:58:41.139Z,81.10
2018-02-05T04:01:11.800Z,81.00
2018-02-05T04:03:41.181Z,81.70
2018-02-05T04:06:10.789Z,81.50
2018-02-05T04:08:41.147Z,81.70
2018-02-05T04:11:09.335Z,82.10
2018-02-05T04:13:37.395Z,81.60
2018-02-05T04:16:05.831Z,81.90
2018-02-05T04:18:35.302Z,82.00
2018-02-05T04:21:06.385Z,81.60
2018-02-05T04:23:37.301Z,81.80
2018-02-05T04:26:07.618Z,82.60
2018-02-05T04:28:37.901Z,82.60
2018-02-05T04:31:08.845Z,82.80
2018-02-05T04:33:38.375Z,82.80
2018-02-05T04:36:08.543Z,82.90
2018-02-05T04:38:40.684Z,82.80
2018-02-05T04:41:09.243Z,82.70
2018-02-05T04:43:42.400Z,83.00
2018-02-05T04:46:10.444Z,83.60
2018-02-05T04:48:41.764Z,83.70
2018-02-05T04:51:12.723Z,83.70
2018-02-05T04:53:41.582Z,83.30
2018-02-05T04:56:11.653Z,83.30
2018-02-05T04:58:40.491Z,83.30
2018-02-05T05:01:10.096Z,83.20
2018-02-05T05:03:38.246Z,83.60
2018-02-05T05:06:08.080Z,83.90
2018-02-05T05:08:40.437Z,82.60
2018-02-05T05:11:10.844Z,82.80
2018-02-05T05:13:41.145Z,83.10
2018-02-05T05:16:11.642Z,83.20
2018-02-05T05:18:40.874Z,82.50
2018-02-05T05:21:08.933Z,82.50
2018-02-05T05:23:41.865Z,81.70
2018-02-05T05:26:11.733Z,82.00
2018-02-05T05:28:42.299Z,81.40
2018-02-05T05:31:10.398Z,81.50
2018-02-05T05:33:39.850Z,80.90
2018-02-05T05:36:10.833Z,79.40
2018-02-05T05:38:39.041Z,79.30
2018-02-05T05:41:09.644Z,79.40
2018-02-05T05:43:39.858Z,80.10
2018-02-05T05:46:10.488Z,80.80
2018-02-05T05:48:42.813Z,80.80
2018-02-05T05:51:10.867Z,80.90
2018-02-05T05:53:39.844Z,79.70
2018-02-05T05:56:07.901Z,79.10
2018-02-05T05:58:41.882Z,78.00
2018-02-05T06:01:11.802Z,77.30
2018-02-05T06:03:42.141Z,76.00
2018-02-05T06:06:11.395Z,75.90
2018-02-05T06:08:42.599Z,75.30
2018-02-05T06:11:12.014Z,75.50
2018-02-05T06:13:40.107Z,75.80
2018-02-05T06:16:10.840Z,75.80
2018-02-05T06:18:38.895Z,75.50
2018-02-05T06:21:06.953Z,74.70
2018-02-05T06:23:39.117Z,74.80
2018-02-05T06:26:09.811Z,74.80
2018-02-05T06:28:39.287Z,75.30
2018-02-05T06:31:09.857Z,75.30
2018-02-05T06:34:08.173Z,75.00
2018-02-05T06:36:37.369Z,74.40
2018-02-05T06:39:06.476Z,74.70
2018-02-05T06:41:35.258Z,74.70
2018-02-05T06:44:04.493Z,74.80
2018-02-05T06:46:33.514Z,74.80
2018-02-05T06:49:02.310Z,75.30
2018-02-05T06:51:42.313Z,75.60
2018-02-05T06:54:23.063Z,76.40
2018-02-05T06:56:51.984Z,74.80
2018-02-05T06:59:20.206Z,75.30
2018-02-05T07:01:49.015Z,74.90
2018-02-05T07:04:17.072Z,74.90
2018-02-05T07:06:45.122Z,74.30
2018-02-05T07:09:13.171Z,74.40
2018-02-05T07:11:41.238Z,74.50
2018-02-05T07:14:10.060Z,73.60
2018-02-05T07:16:38.395Z,73.50
2018-02-05T07:19:06.899Z,72.70
2018-02-05T07:21:35.126Z,72.80
2018-02-05T07:24:04.327Z,72.70
2018-02-05T07:26:33.381Z,72.10
2018-02-05T07:29:01.781Z,72.10
2018-02-05T07:31:31.902Z,71.00
2018-02-05T07:34:01.161Z,71.50
2018-02-05T07:36:32.873Z,71.40
2018-02-05T07:39:05.483Z,71.30
2018-02-05T07:41:35.697Z,71.00
2018-02-05T07:44:04.824Z,71.30
2018-02-05T07:46:34.091Z,70.70
2018-02-05T07:49:04.401Z,69.50
2018-02-05T07:51:34.320Z,69.50
2018-02-05T07:54:04.736Z,69.60
2018-02-05T07:56:36.202Z,68.90
2018-02-05T07:59:11.907Z,68.80
2018-02-05T08:01:40.742Z,67.80
2018-02-05T08:04:12.271Z,67.80
2018-02-05T08:06:41.139Z,67.70
2018-02-05T08:09:10.155Z,67.70
2018-02-05T08:11:40.036Z,67.90
2018-02-05T08:14:10.211Z,68.70
2018-02-05T08:16:39.070Z,69.50
2018-02-05T08:19:09.028Z,68.80
2018-02-05T08:21:38.257Z,69.10
2018-02-05T08:24:08.998Z,67.80
2018-02-05T08:26:38.170Z,67.70
2018-02-05T08:29:09.210Z,68.00
2018-02-05T08:31:38.235Z,68.00
2018-02-05T08:34:07.836Z,68.30
2018-02-05T08:36:37.325Z,67.60
2018-02-05T08:39:06.267Z,68.10
2018-02-05T08:41:37.348Z,67.80
2018-02-05T08:44:07.404Z,67.80
2018-02-05T08:46:36.646Z,68.20
2018-02-05T08:49:05.658Z,68.30
2018-02-05T08:51:34.373Z,67.90
2018-02-05T08:54:02.475Z,67.50
2018-02-05T08:56:31.467Z,67.50
2018-02-05T08:59:01.288Z,66.40
2018-02-05T09:01:31.094Z,66.40
2018-02-05T09:04:00.945Z,64.70
2018-02-05T09:06:30.825Z,64.70
2018-02-05T09:09:00.290Z,64.90
2018-02-05T09:11:30.051Z,64.00
2018-02-05T09:14:00.699Z,64.70
2018-02-05T09:16:30.826Z,64.70
2018-02-05T09:19:00.487Z,64.60
2018-02-05T09:21:31.633Z,63.80
2018-02-05T09:24:01.012Z,65.20
2018-02-05T09:26:31.682Z,65.70
2018-02-05T09:29:02.621Z,65.60
2018-02-05T09:31:32.229Z,64.90
2018-02-05T09:34:01.452Z,63.50
2018-02-05T09:36:31.113Z,63.40
2018-02-05T09:39:02.769Z,62.90
2018-02-05T09:41:34.249Z,61.20
2018-02-05T09:44:05.952Z,61.20
2018-02-05T09:46:35.346Z,60.70
2018-02-05T09:49:06.867Z,61.00
2018-02-05T09:51:36.395Z,60.90
2018-02-05T09:54:07.612Z,61.90
2018-02-05T09:56:38.826Z,60.30
2018-02-05T09:59:08.821Z,56.40
2018-02-05T10:01:37.930Z,56.40
2018-02-05T10:04:06.707Z,54.70
2018-02-05T10:06:37.970Z,53.20
2018-02-05T10:09:06.328Z,52.00
2018-02-05T10:11:35.287Z,50.70
2018-02-05T10:14:04.701Z,50.20
2018-02-05T10:16:35.710Z,49.20
2018-02-05T10:19:06.160Z,50.30
2018-02-05T10:21:36.404Z,50.20
2018-02-05T10:24:05.436Z,51.70
2018-02-05T10:26:35.476Z,51.60
2018-02-05T10:29:04.571Z,52.00
2018-02-05T10:31:33.483Z,52.10
2018-02-05T10:34:03.950Z,52.80
2018-02-05T10:36:33.131Z,52.70
2018-02-05T10:39:05.143Z,51.80
2018-02-05T10:41:34.479Z,52.20
2018-02-05T10:44:04.336Z,51.90
2018-02-05T10:46:33.716Z,52.00
2018-02-05T10:49:03.644Z,51.50
2018-02-05T10:51:34.335Z,52.30
2018-02-05T10:54:03.243Z,51.90
2018-02-05T10:56:32.128Z,51.80
2018-02-05T10:59:00.772Z,50.10
2018-02-05T11:01:36.060Z,43.00
2018-02-05T11:04:06.202Z,42.90
2018-02-05T11:06:35.271Z,41.40
2018-02-05T11:09:04.730Z,40.70
2018-02-05T11:11:36.060Z,38.20
2018-02-05T11:14:08.003Z,37.40
2018-02-05T11:16:37.608Z,36.60
2018-02-05T11:19:06.581Z,36.60
2018-02-05T11:21:37.518Z,34.10
2018-02-05T11:24:06.492Z,34.00
2018-02-05T11:26:37.409Z,33.00
2018-02-05T11:29:08.029Z,32.80
2018-02-05T11:31:36.442Z,32.70
2018-02-05T11:34:06.054Z,32.30
2018-02-05T11:36:35.809Z,32.50
2018-02-05T11:39:06.299Z,32.50
2018-02-05T11:41:36.321Z,33.90
2018-02-05T11:44:05.510Z,35.70
2018-02-05T11:46:36.258Z,34.90
2018-02-05T11:49:05.092Z,34.90
2018-02-05T11:51:34.626Z,33.70
2018-02-05T11:54:04.373Z,33.20
2018-02-05T11:56:33.139Z,33.20
2018-02-05T11:59:03.330Z,34.50
2018-02-05T12:01:33.833Z,34.50
2018-02-05T12:04:05.286Z,35.50
2018-02-05T12:06:34.400Z,35.70
2018-02-05T12:09:03.735Z,35.70
2018-02-05T12:11:32.303Z,35.70
2018-02-05T12:14:01.605Z,35.70
2018-02-05T12:16:31.940Z,36.90
2018-02-05T12:19:01.442Z,37.40
2018-02-05T12:21:30.954Z,37.00
2018-02-05T12:24:01.056Z,37.10
2018-02-05T12:26:31.970Z,36.80
2018-02-05T12:29:01.497Z,36.70
2018-02-05T12:31:31.588Z,37.00
2018-02-05T12:34:01.062Z,37.70
2018-02-05T12:36:30.068Z,35.50
2018-02-05T12:38:59.719Z,35.20
2018-02-05T12:41:31.593Z,35.20
2018-02-05T12:44:00.754Z,35.10
2018-02-05T12:46:31.490Z,34.90
2018-02-05T12:49:01.447Z,34.60
2018-02-05T12:51:31.021Z,34.90
2018-02-05T12:54:00.928Z,36.80
2018-02-05T12:56:31.024Z,38.50
2018-02-05T12:59:01.293Z,39.80
2018-02-05T13:01:34.526Z,39.70
2018-02-05T13:07:11.145Z,37.90
2018-02-05T13:09:39.966Z,37.20
2018-02-05T13:12:08.242Z,37.10
2018-02-05T13:14:37.164Z,36.80
2018-02-05T13:17:06.550Z,37.00
2018-02-05T13:19:35.687Z,37.40
2018-02-05T13:22:04.806Z,39.00
2018-02-05T13:24:34.494Z,39.60
2018-02-05T13:27:03.835Z,41.60
2018-02-05T13:29:33.037Z,41.60
2018-02-05T13:32:02.150Z,41.30
2018-02-05T13:34:31.281Z,40.80
2018-02-05T13:37:00.801Z,41.00
2018-02-05T13:39:31.662Z,41.40
2018-02-05T13:42:01.019Z,40.90
2018-02-05T13:44:30.650Z,42.40
2018-02-05T13:47:00.904Z,42.20
2018-02-05T13:49:33.373Z,40.80
2018-02-05T13:52:02.463Z,39.40
2018-02-05T13:54:31.836Z,39.10
2018-02-05T13:57:02.332Z,39.40
2018-02-05T13:59:33.048Z,39.50
2018-02-05T14:02:03.419Z,38.00
2018-02-05T14:04:33.094Z,38.00
2018-02-05T14:07:03.472Z,38.20
2018-02-05T14:09:33.370Z,41.00
2018-02-05T14:12:03.182Z,41.00
2018-02-05T14:14:33.093Z,41.40
2018-02-05T14:17:02.040Z,42.10
2018-02-05T14:19:32.412Z,41.60
2018-02-05T14:22:01.549Z,41.60
2018-02-05T14:24:31.595Z,41.90
2018-02-05T14:27:05.726Z,42.40
2018-02-05T14:29:34.944Z,42.90
2018-02-05T14:32:04.014Z,43.50
2018-02-05T14:34:33.534Z,44.10
2018-02-05T14:37:04.032Z,44.70
2018-02-05T14:39:33.680Z,44.20
2018-02-05T14:42:03.246Z,44.80
2018-02-05T14:44:33.608Z,45.80
2018-02-05T14:47:06.007Z,46.00
2018-02-05T14:49:35.956Z,45.90
2018-02-05T14:52:06.131Z,46.60
2018-02-05T14:54:36.762Z,46.90
2018-02-05T14:57:06.555Z,47.20
2018-02-05T14:59:36.002Z,48.50
2018-02-05T15:02:06.840Z,48.40
2018-02-05T15:04:38.439Z,48.60
2018-02-05T15:07:08.110Z,49.30
2018-02-05T15:09:38.647Z,49.20
2018-02-05T15:12:10.633Z,49.90
2018-02-05T15:14:39.562Z,50.00
2018-02-05T15:17:07.612Z,50.50
2018-02-05T15:19:36.035Z,51.10
2018-02-05T15:22:07.506Z,51.50
2018-02-05T15:24:37.062Z,51.80
2018-02-05T15:27:08.475Z,51.90
2018-02-05T15:29:36.983Z,53.00
2018-02-05T15:32:05.738Z,53.10
2018-02-05T15:34:35.094Z,53.30
2018-02-05T15:37:05.683Z,53.40
2018-02-05T15:39:35.719Z,53.90
2018-02-05T15:42:04.336Z,53.90
2018-02-05T15:44:34.041Z,53.90
2018-02-05T15:47:03.307Z,54.70
2018-02-05T15:49:32.502Z,55.10
2018-02-05T15:52:02.474Z,55.30
2018-02-05T15:54:31.297Z,54.70
2018-02-05T15:57:00.697Z,54.70
2018-02-05T15:59:30.140Z,54.90
2018-02-05T16:01:59.617Z,55.30
2018-02-05T16:04:30.828Z,55.30
2018-02-05T16:07:00.558Z,56.00
2018-02-05T16:09:29.439Z,56.00
2018-02-05T16:11:59.652Z,55.90
2018-02-05T16:14:28.961Z,55.80
2018-02-05T16:17:00.937Z,56.50
2018-02-05T16:19:30.943Z,56.00
2018-02-05T16:21:59.479Z,56.00
2018-02-05T16:24:29.225Z,56.30
2018-02-05T16:27:03.257Z,56.80
2018-02-05T16:29:34.075Z,56.80
2018-02-05T16:32:04.590Z,56.80
2018-02-05T16:34:33.962Z,56.40
2018-02-05T16:37:02.676Z,56.40
2018-02-05T16:39:32.966Z,57.40
2018-02-05T16:42:01.184Z,57.30
2018-02-05T16:44:32.933Z,57.50
2018-02-05T16:47:02.346Z,57.60
2018-02-05T16:49:33.015Z,57.80
2018-02-05T16:52:02.031Z,57.80
2018-02-05T16:54:32.404Z,58.70
2018-02-05T16:57:03.795Z,58.00
2018-02-05T16:59:33.608Z,57.70
2018-02-05T17:02:03.288Z,57.30
2018-02-05T17:04:32.991Z,58.70
2018-02-05T17:07:02.641Z,58.70
2018-02-05T17:09:32.302Z,57.90
2018-02-05T17:12:02.066Z,57.80
2018-02-05T17:14:30.986Z,57.70
2018-02-05T17:17:00.382Z,57.60
2018-02-05T17:19:29.777Z,57.50
2018-02-05T17:21:58.729Z,57.20
2018-02-05T17:24:28.432Z,57.80
2018-02-05T17:26:58.030Z,58.50
2018-02-05T17:29:27.538Z,58.70
2018-02-05T17:31:57.978Z,58.70
2018-02-05T17:34:26.745Z,58.70
2018-02-05T17:36:56.171Z,58.70
2018-02-05T17:39:24.660Z,59.10
2018-02-05T17:41:52.867Z,58.60
2018-02-05T17:44:21.106Z,57.70
2018-02-05T17:46:49.253Z,58.00
2018-02-05T17:49:17.338Z,58.80
2018-02-05T17:51:45.386Z,59.40
2018-02-05T17:54:13.438Z,59.20
2018-02-05T17:56:41.504Z,59.70
2018-02-05T17:59:10.330Z,59.20
2018-02-05T18:01:38.433Z,59.00
2018-02-05T18:04:06.503Z,58.70
2018-02-05T18:06:34.709Z,58.30
2018-02-05T18:09:02.824Z,57.90
2018-02-05T18:11:31.121Z,58.00
2018-02-05T18:13:59.345Z,59.00
2018-02-05T18:16:28.260Z,58.80
2018-02-05T18:18:57.346Z,58.70
2018-02-05T18:21:26.014Z,58.80
2018-02-05T18:23:55.258Z,59.50
2018-02-05T18:26:24.572Z,58.90
2018-02-05T18:28:53.116Z,59.30
2018-02-05T18:31:21.157Z,59.80
2018-02-05T18:33:49.457Z,60.40
2018-02-05T18:36:17.546Z,60.60
2018-02-05T18:38:46.426Z,59.80
2018-02-05T18:41:14.674Z,59.70
2018-02-05T18:43:42.898Z,59.80
2018-02-05T18:46:10.953Z,60.00
2018-02-05T18:48:39.622Z,59.80
2018-02-05T18:51:07.670Z,59.90
2018-02-05T18:53:35.749Z,60.40
2018-02-05T18:56:03.811Z,60.10
2018-02-05T18:58:32.629Z,60.30
2018-02-05T19:01:00.740Z,60.20
2018-02-05T19:03:28.799Z,60.20
2018-02-05T19:05:56.852Z,60.70
2018-02-05T19:08:24.912Z,60.80
2018-02-05T19:10:52.972Z,61.10
2018-02-05T19:13:21.040Z,60.90
2018-02-05T19:15:49.077Z,60.80
2018-02-05T19:18:17.315Z,61.60
2018-02-05T19:20:46.382Z,61.70
2018-02-05T19:23:14.552Z,61.70
2018-02-05T19:25:42.590Z,61.90
2018-02-05T19:28:10.738Z,62.10
2018-02-05T19:30:38.786Z,62.60
2018-02-05T19:33:06.881Z,62.30
2018-02-05T19:35:35.010Z,62.50
2018-02-05T19:38:03.043Z,62.40
2018-02-05T19:40:31.154Z,62.60
2018-02-05T19:42:59.289Z,62.30
2018-02-05T19:45:27.565Z,62.40
2018-02-05T19:47:56.408Z,62.90
2018-02-05T19:50:24.460Z,62.10
2018-02-05T19:52:52.524Z,62.50
2018-02-05T19:55:20.600Z,62.80
2018-02-05T19:57:49.424Z,64.30
2018-02-05T20:00:17.488Z,63.50
2018-02-05T20:02:45.537Z,64.10
2018-02-05T20:05:14.602Z,64.20
2018-02-05T20:07:42.670Z,64.10
2018-02-05T20:10:11.501Z,64.30
2018-02-05T20:12:40.182Z,64.20
2018-02-05T20:15:08.241Z,63.60
2018-02-05T20:17:36.304Z,63.70
2018-02-05T20:20:05.149Z,63.50
2018-02-05T20:22:33.351Z,63.40
2018-02-05T20:25:01.407Z,64.10
2018-02-05T20:27:29.455Z,64.70
2018-02-05T20:29:57.536Z,64.80
2018-02-05T20:32:25.582Z,64.90
2018-02-05T20:34:53.680Z,64.70
2018-02-05T20:37:21.744Z,64.30
2018-02-05T20:39:49.794Z,64.50
2018-02-05T20:42:17.864Z,64.60
2018-02-05T20:44:46.705Z,65.30
2018-02-05T20:47:14.763Z,65.30
2018-02-05T20:49:42.804Z,65.60
2018-02-05T20:52:10.862Z,65.60
2018-02-05T20:54:39.446Z,66.00
2018-02-05T20:57:07.517Z,65.50
2018-02-05T20:59:35.564Z,66.00
2018-02-05T21:02:03.681Z,65.80
2018-02-05T21:04:33.734Z,65.20
2018-02-05T21:07:01.790Z,65.00
2018-02-05T21:09:30.616Z,65.00
2018-02-05T21:11:58.672Z,64.90
2018-02-05T21:14:26.798Z,64.60
2018-02-05T21:16:54.902Z,64.60
2018-02-05T21:19:23.057Z,64.50
2018-02-05T21:21:51.066Z,64.60
2018-02-05T21:24:19.222Z,65.20
2018-02-05T21:26:48.320Z,65.90
2018-02-05T21:29:17.168Z,65.60
2018-02-05T21:31:45.202Z,65.60
2018-02-05T21:34:13.277Z,66.50
2018-02-05T21:36:42.172Z,66.10
2018-02-05T21:39:10.236Z,66.40
2018-02-05T21:41:39.899Z,66.80
2018-02-05T21:44:08.554Z,67.10
2018-02-05T21:46:36.659Z,67.80
2018-02-05T21:49:04.797Z,66.80
2018-02-05T21:51:33.483Z,66.90
2018-02-05T21:54:01.592Z,66.70
2018-02-05T21:56:32.602Z,66.50
2018-02-05T21:59:00.767Z,66.40
2018-02-05T22:01:30.409Z,66.70
2018-02-05T22:03:58.550Z,66.40
2018-02-05T22:06:26.654Z,65.80
2018-02-05T22:08:55.656Z,66.10
2018-02-05T22:11:23.775Z,66.00
2018-02-05T22:13:52.182Z,65.60
2018-02-05T22:16:20.278Z,66.00
2018-02-05T22:18:48.347Z,65.70
2018-02-05T22:21:16.623Z,65.80
2018-02-05T22:23:44.712Z,65.20
2018-02-05T22:26:13.577Z,65.10
2018-02-05T22:28:42.603Z,65.00
2018-02-05T22:31:10.667Z,64.90
2018-02-05T22:33:39.597Z,64.60
2018-02-05T22:36:11.339Z,64.80
2018-02-05T22:38:40.151Z,64.60
2018-02-05T22:41:08.355Z,65.40
2018-02-05T22:43:36.503Z,64.70
2018-02-05T22:46:05.329Z,65.20
2018-02-05T22:48:39.554Z,65.10
2018-02-05T22:51:07.687Z,64.50
2018-02-05T22:53:36.013Z,64.50
2018-02-05T22:56:04.187Z,64.90
2018-02-05T22:58:33.095Z,65.00
2018-02-05T23:01:03.058Z,64.70
2018-02-05T23:03:31.553Z,64.70
2018-02-05T23:06:00.029Z,64.90
2018-02-05T23:08:29.643Z,65.30
2018-02-05T23:10:59.202Z,65.50
2018-02-05T23:13:28.997Z,65.50
2018-02-05T23:15:58.745Z,65.90
2018-02-05T23:18:28.352Z,66.40
2018-02-05T23:20:57.577Z,67.30
2018-02-05T23:23:27.466Z,68.10
2018-02-05T23:25:56.026Z,68.10
2018-02-05T23:28:25.198Z,67.90
2018-02-05T23:31:11.987Z,67.30
2018-02-05T23:33:40.452Z,66.80
2018-02-05T23:36:09.456Z,66.30
2018-02-05T23:38:38.348Z,65.70
2018-02-05T23:41:07.877Z,66.10
2018-02-05T23:43:42.879Z,65.50
2018-02-05T23:46:12.579Z,65.50
2018-02-05T23:48:41.445Z,65.10
2018-02-05T23:51:12.041Z,65.20
2018-02-05T23:53:41.752Z,65.40
2018-02-05T23:56:14.476Z,65.20
2018-02-05T23:58:42.756Z,65.20
